Time;durP1;ratioP1;P1;durP2;ratioP2;P2;SDS_P1;SDS_P2;PMS_P1;PMS_P2;Temp;Humidity;BMP_temperature;BMP_pressure;BME280_temperature;BME280_humidity;BME280_pressure;Samples;Min_cycle;Max_cycle;Signal;HPM_P1;HPM_P2
2021/04/27 00:01:44;;;;;;;6.70;3.03;;;12.60;50.30;;;;;;6169041;23;20017;-73
2021/04/27 00:04:11;;;;;;;6.07;3.85;;;12.60;50.10;;;;;;6168695;23;20028;-73
2021/04/27 00:06:36;;;;;;;7.70;3.22;;;12.60;50.10;;;;;;6163138;23;20276;-73
2021/04/27 00:09:05;;;;;;;7.10;3.08;;;12.50;50.20;;;;;;6168966;23;20020;-74
2021/04/27 00:11:31;;;;;;;6.40;3.13;;;12.50;50.30;;;;;;6168551;23;20014;-74
2021/04/27 00:13:57;;;;;;;6.15;2.53;;;12.50;50.30;;;;;;6158644;23;20010;-74
2021/04/27 00:16:23;;;;;;;5.97;3.08;;;12.50;50.30;;;;;;6159123;23;20020;-73
2021/04/27 00:18:49;;;;;;;6.18;3.35;;;12.50;50.20;;;;;;6160002;23;20029;-74
2021/04/27 00:21:15;;;;;;;6.32;2.65;;;12.50;50.30;;;;;;6159919;23;20040;-74
2021/04/27 00:23:42;;;;;;;8.38;3.17;;;12.50;50.30;;;;;;6159168;23;20100;-74
2021/04/27 00:26:07;;;;;;;5.03;2.38;;;12.50;50.20;;;;;;6168585;23;20006;-74
2021/04/27 00:28:33;;;;;;;8.57;2.88;;;12.50;50.20;;;;;;6168792;23;20024;-74
2021/04/27 00:30:59;;;;;;;6.38;2.85;;;12.40;50.10;;;;;;6168828;23;20016;-74
2021/04/27 00:33:25;;;;;;;5.45;2.65;;;12.40;50.10;;;;;;6168473;23;20013;-74
2021/04/27 00:35:51;;;;;;;6.13;2.90;;;12.40;50.20;;;;;;6168261;23;20403;-74
2021/04/27 00:38:17;;;;;;;6.68;2.70;;;12.40;50.30;;;;;;6168617;23;20037;-74
2021/04/27 00:40:45;;;;;;;4.32;2.85;;;12.30;50.50;;;;;;6158752;23;20017;-74
2021/04/27 00:43:11;;;;;;;5.25;2.50;;;12.30;50.70;;;;;;6158854;23;20434;-74
2021/04/27 00:45:37;;;;;;;6.53;2.80;;;12.30;50.70;;;;;;6168109;23;20081;-73
2021/04/27 00:48:03;;;;;;;7.18;2.90;;;12.20;50.60;;;;;;6168507;23;20032;-74
2021/04/27 00:50:35;;;;;;;4.93;2.42;;;12.30;50.80;;;;;;6158068;23;20477;-73
2021/04/27 00:53:03;;;;;;;7.93;3.10;;;12.30;50.90;;;;;;6169044;23;20144;-74
2021/04/27 00:55:29;;;;;;;6.82;2.80;;;12.20;50.90;;;;;;6158872;23;20295;-74
2021/04/27 00:57:56;;;;;;;4.22;2.50;;;12.20;51.00;;;;;;6168036;23;20306;-73
2021/04/27 01:00:27;;;;;;;5.32;2.63;;;12.20;51.00;;;;;;6169095;23;20009;-73
2021/04/27 01:02:54;;;;;;;4.88;2.85;;;12.20;51.00;;;;;;6167976;23;20009;-73
2021/04/27 01:05:24;;;;;;;6.45;2.60;;;12.20;51.00;;;;;;6158604;23;20477;-73
2021/04/27 01:08:10;;;;;;;6.50;2.70;;;12.20;51.10;;;;;;6159476;23;20302;-73
2021/04/27 01:10:53;;;;;;;6.32;2.92;;;12.20;51.00;;;;;;6168608;23;20013;-73
2021/04/27 01:13:45;;;;;;;3.92;2.88;;;12.10;50.90;;;;;;6158270;23;20021;-74
2021/04/27 01:16:12;;;;;;;4.32;2.72;;;12.10;50.90;;;;;;6158167;23;20010;-73
2021/04/27 01:18:43;;;;;;;6.10;2.70;;;12.10;51.00;;;;;;6168269;23;20449;-73
2021/04/27 01:21:11;;;;;;;6.63;2.78;;;12.10;51.20;;;;;;6158264;23;20013;-73
2021/04/27 01:23:55;;;;;;;4.70;2.38;;;12.10;51.30;;;;;;6168296;23;20084;-73
2021/04/27 01:26:20;;;;;;;6.32;2.92;;;12.10;51.30;;;;;;6168156;23;20017;-73
2021/04/27 01:28:50;;;;;;;5.53;2.70;;;12.10;51.40;;;;;;6158819;23;20079;-73
2021/04/27 01:31:18;;;;;;;6.65;2.85;;;12.00;51.30;;;;;;6167672;23;20017;-74
2021/04/27 01:33:44;;;;;;;7.75;3.33;;;12.10;51.40;;;;;;6167331;23;20352;-73
2021/04/27 01:36:11;;;;;;;5.30;2.60;;;12.10;51.40;;;;;;6157981;23;20014;-75
2021/04/27 01:38:37;;;;;;;6.35;3.20;;;12.00;51.20;;;;;;6168261;23;20048;-73
2021/04/27 01:41:04;;;;;;;6.70;2.85;;;12.00;51.30;;;;;;6157792;23;20009;-73
2021/04/27 01:43:30;;;;;;;3.83;2.58;;;12.00;51.20;;;;;;6168051;23;20009;-73
2021/04/27 01:46:04;;;;;;;6.60;2.90;;;12.00;51.20;;;;;;6167437;23;20303;-73
2021/04/27 01:48:34;;;;;;;5.38;2.60;;;11.90;51.20;;;;;;6158193;23;20031;-73
2021/04/27 01:51:00;;;;;;;3.83;2.47;;;11.90;51.20;;;;;;6157625;23;20411;-74
2021/04/27 01:53:27;;;;;;;4.90;2.40;;;11.90;51.20;;;;;;6167951;23;20016;-74
2021/04/27 01:55:53;;;;;;;5.30;3.05;;;11.90;51.30;;;;;;6167249;23;20293;-73
2021/04/27 01:58:19;;;;;;;6.03;3.25;;;11.90;51.30;;;;;;6167582;23;20013;-73
2021/04/27 02:00:46;;;;;;;4.10;2.50;;;11.90;51.30;;;;;;6159006;23;20029;-73
2021/04/27 02:03:12;;;;;;;4.65;2.50;;;11.90;51.30;;;;;;6141864;23;20339;-73
2021/04/27 02:05:39;;;;;;;4.45;2.35;;;11.90;51.30;;;;;;6167217;23;20014;-74
2021/04/27 02:08:05;;;;;;;5.50;3.00;;;11.80;51.20;;;;;;6167549;23;20092;-73
2021/04/27 02:10:31;;;;;;;5.28;2.60;;;11.80;51.20;;;;;;6167833;23;20013;-73
2021/04/27 02:13:04;;;;;;;4.57;2.65;;;11.80;51.20;;;;;;6158067;23;20036;-73
2021/04/27 02:15:30;;;;;;;5.03;2.63;;;11.80;51.30;;;;;;6157627;23;20028;-73
2021/04/27 02:18:09;;;;;;;5.30;2.90;;;11.80;51.30;;;;;;6157968;23;20013;-73
2021/04/27 02:20:35;;;;;;;5.47;2.92;;;11.80;51.30;;;;;;6167841;23;20083;-73
2021/04/27 02:23:02;;;;;;;4.22;2.70;;;11.80;51.30;;;;;;6158287;23;20093;-73
2021/04/27 02:25:29;;;;;;;4.35;3.15;;;11.70;51.20;;;;;;6158067;23;20021;-73
2021/04/27 02:27:56;;;;;;;6.88;3.22;;;11.70;51.10;;;;;;6167319;23;20032;-73
2021/04/27 02:30:25;;;;;;;6.05;3.10;;;11.70;51.00;;;;;;6167641;23;20014;-73
2021/04/27 02:32:52;;;;;;;4.80;2.70;;;11.60;50.80;;;;;;6158116;23;20010;-73
2021/04/27 02:35:20;;;;;;;7.63;2.65;;;11.60;50.70;;;;;;6167643;23;20010;-73
2021/04/27 02:37:48;;;;;;;4.80;2.83;;;11.60;50.60;;;;;;6167370;23;20009;-73
2021/04/27 02:40:25;;;;;;;5.22;2.70;;;11.60;50.70;;;;;;6167331;23;20028;-73
2021/04/27 02:42:54;;;;;;;7.28;3.10;;;11.60;50.80;;;;;;6167750;23;20037;-73
2021/04/27 02:45:30;;;;;;;4.35;2.72;;;11.60;50.90;;;;;;6158354;23;20335;-74
2021/04/27 02:48:11;;;;;;;4.82;2.65;;;11.60;50.80;;;;;;6168077;23;20088;-73
2021/04/27 02:50:39;;;;;;;4.63;2.78;;;11.60;50.70;;;;;;6167566;23;20068;-73
2021/04/27 02:53:05;;;;;;;8.00;3.25;;;11.50;50.70;;;;;;6168339;23;20013;-73
2021/04/27 02:55:31;;;;;;;6.88;3.08;;;11.60;50.70;;;;;;6167533;23;20010;-74
2021/04/27 02:57:59;;;;;;;4.75;2.65;;;11.50;50.60;;;;;;6157873;23;20017;-73
2021/04/27 03:00:25;;;;;;;5.40;2.97;;;11.50;50.40;;;;;;6167950;23;20013;-73
2021/04/27 03:02:51;;;;;;;7.75;3.50;;;11.50;50.50;;;;;;6158882;23;20025;-73
2021/04/27 03:05:17;;;;;;;6.25;3.00;;;11.50;50.70;;;;;;6167569;23;20017;-73
2021/04/27 03:07:43;;;;;;;4.30;2.88;;;11.40;50.70;;;;;;6157448;23;20022;-73
2021/04/27 03:10:10;;;;;;;6.53;3.10;;;11.50;50.80;;;;;;6167616;23;20009;-74
2021/04/27 03:12:36;;;;;;;6.07;2.90;;;11.40;50.80;;;;;;6169380;23;20080;-73
2021/04/27 03:15:04;;;;;;;4.80;3.58;;;11.40;50.90;;;;;;6159215;23;20342;-73
2021/04/27 03:17:30;;;;;;;3.30;2.72;;;11.40;51.00;;;;;;6159385;23;20021;-73
2021/04/27 03:19:55;;;;;;;5.55;3.00;;;11.40;51.00;;;;;;6159814;23;20023;-73
2021/04/27 03:22:21;;;;;;;4.68;2.85;;;11.40;51.00;;;;;;6160428;23;20284;-73
2021/04/27 03:24:47;;;;;;;7.10;3.03;;;11.40;51.10;;;;;;6169101;23;20310;-73
2021/04/27 03:27:13;;;;;;;3.55;2.80;;;11.40;51.10;;;;;;6159181;23;20021;-74
2021/04/27 03:29:39;;;;;;;5.03;3.17;;;11.40;51.10;;;;;;6168778;23;20009;-73
2021/04/27 03:32:05;;;;;;;6.05;2.97;;;11.40;51.00;;;;;;6159343;23;20026;-73
2021/04/27 03:34:31;;;;;;;5.18;3.22;;;11.30;50.90;;;;;;6159517;23;20014;-73
2021/04/27 03:36:57;;;;;;;3.55;2.90;;;11.30;50.70;;;;;;6169051;23;20005;-73
2021/04/27 03:39:23;;;;;;;4.22;3.20;;;11.30;50.60;;;;;;6169098;23;20498;-73
2021/04/27 03:41:49;;;;;;;5.15;3.08;;;11.30;50.60;;;;;;6169812;23;20032;-73
2021/04/27 03:44:14;;;;;;;6.28;3.00;;;11.30;50.60;;;;;;6159840;23;20017;-73
2021/04/27 03:46:41;;;;;;;7.50;3.47;;;11.20;50.50;;;;;;6158750;23;20044;-73
2021/04/27 03:49:07;;;;;;;5.65;3.00;;;11.20;50.80;;;;;;6159160;23;20017;-73
2021/04/27 03:51:32;;;;;;;6.30;3.70;;;11.20;50.90;;;;;;6158800;23;20490;-73
2021/04/27 03:53:59;;;;;;;5.88;3.20;;;11.20;50.80;;;;;;6168694;23;20093;-73
2021/04/27 03:56:25;;;;;;;6.00;3.30;;;11.20;50.60;;;;;;6159286;23;20290;-73
2021/04/27 03:58:50;;;;;;;5.47;3.45;;;11.20;50.50;;;;;;6169225;23;20084;-73
2021/04/27 04:01:16;;;;;;;6.10;3.47;;;11.20;50.40;;;;;;6169202;23;20080;-73
2021/04/27 04:03:42;;;;;;;5.45;3.38;;;11.10;50.30;;;;;;6168868;23;20044;-73
2021/04/27 04:06:09;;;;;;;7.28;3.35;;;11.10;50.30;;;;;;6166363;23;20014;-73
2021/04/27 04:08:35;;;;;;;4.75;3.05;;;11.10;50.40;;;;;;6168642;23;20436;-73
2021/04/27 04:11:02;;;;;;;7.30;3.58;;;11.10;50.50;;;;;;6158910;23;20044;-73
2021/04/27 04:13:28;;;;;;;5.43;3.40;;;11.10;50.40;;;;;;6169315;23;20013;-73
2021/04/27 04:15:54;;;;;;;7.00;3.22;;;11.00;50.40;;;;;;6168555;23;20013;-73
2021/04/27 04:18:21;;;;;;;6.18;3.63;;;11.00;50.50;;;;;;6158935;23;20024;-73
2021/04/27 04:20:48;;;;;;;4.90;3.50;;;11.00;50.50;;;;;;6158939;23;20013;-73
2021/04/27 04:23:14;;;;;;;3.35;3.00;;;11.00;50.50;;;;;;6168535;23;20023;-73
2021/04/27 04:25:41;;;;;;;6.03;3.65;;;11.00;50.50;;;;;;6168648;23;20347;-73
2021/04/27 04:28:07;;;;;;;4.65;3.47;;;11.00;50.60;;;;;;6159293;23;20075;-73
2021/04/27 04:30:33;;;;;;;6.43;3.78;;;11.00;50.90;;;;;;6159232;23;20013;-73
2021/04/27 04:32:59;;;;;;;6.35;3.45;;;11.00;51.00;;;;;;6168462;23;20400;-73
2021/04/27 04:35:27;;;;;;;4.57;3.63;;;11.00;51.20;;;;;;6168364;23;20013;-73
2021/04/27 04:37:54;;;;;;;5.25;3.75;;;11.00;51.40;;;;;;6159552;23;20331;-73
2021/04/27 04:40:20;;;;;;;4.93;3.03;;;11.00;51.60;;;;;;6159377;23;20088;-73
2021/04/27 04:42:46;;;;;;;5.13;3.70;;;11.00;51.70;;;;;;6133625;23;20071;-73
2021/04/27 04:45:13;;;;;;;5.03;3.47;;;10.90;51.80;;;;;;6159263;23;20403;-73
2021/04/27 04:47:41;;;;;;;6.68;3.58;;;10.90;52.00;;;;;;6133064;23;20431;-74
2021/04/27 04:50:11;;;;;;;5.60;3.72;;;11.00;52.10;;;;;;6131720;23;20020;-73
2021/04/27 04:52:37;;;;;;;5.13;3.58;;;11.00;52.20;;;;;;6168101;23;20308;-73
2021/04/27 04:55:05;;;;;;;8.32;3.30;;;11.00;52.50;;;;;;6168381;23;20021;-73
2021/04/27 04:57:31;;;;;;;11.65;3.38;;;11.10;53.00;;;;;;6167080;23;20299;-69
2021/04/27 04:59:57;;;;;;;7.05;2.55;;;11.10;53.00;;;;;;6167931;23;20005;-75
2021/04/27 05:02:23;;;;;;;6.28;2.40;;;11.30;53.10;;;;;;6168056;23;20129;-72
2021/04/27 05:04:49;;;;;;;11.73;2.28;;;11.60;53.20;;;;;;6140427;23;20079;-73
2021/04/27 05:07:15;;;;;;;7.97;2.47;;;12.00;53.00;;;;;;6160894;23;20017;-73
2021/04/27 05:09:41;;;;;;;9.40;1.88;;;12.40;52.70;;;;;;6158141;23;20013;-70
2021/04/27 05:12:09;;;;;;;10.32;1.90;;;12.70;52.30;;;;;;6167928;23;20021;-73
2021/04/27 05:14:39;;;;;;;6.72;2.15;;;13.00;52.20;;;;;;6158253;23;20020;-73
2021/04/27 05:17:06;;;;;;;7.05;2.00;;;13.20;52.30;;;;;;6167607;23;20017;-72
2021/04/27 05:19:33;;;;;;;6.95;1.58;;;13.60;52.20;;;;;;6167915;23;20009;-73
2021/04/27 05:22:03;;;;;;;17.35;3.17;;;13.80;52.20;;;;;;6158169;23;20032;-73
2021/04/27 05:24:30;;;;;;;4.85;2.42;;;14.00;51.00;;;;;;6157537;23;20017;-73
2021/04/27 05:26:57;;;;;;;12.10;2.47;;;13.70;50.20;;;;;;6167671;23;20422;-73
2021/04/27 05:29:23;;;;;;;11.13;1.88;;;13.80;51.60;;;;;;6157286;23;20017;-74
2021/04/27 05:31:52;;;;;;;5.60;2.08;;;13.90;52.90;;;;;;6168203;23;20292;-73
2021/04/27 05:34:19;;;;;;;7.30;1.85;;;14.20;53.10;;;;;;6156669;23;20049;-69
2021/04/27 05:36:45;;;;;;;11.05;2.08;;;14.40;53.40;;;;;;6167264;23;20009;-73
2021/04/27 05:39:11;;;;;;;7.45;1.60;;;14.60;53.60;;;;;;6167128;23;20415;-73
2021/04/27 05:41:37;;;;;;;10.75;1.70;;;14.80;54.00;;;;;;6157967;23;20024;-74
2021/04/27 05:44:03;;;;;;;5.70;1.48;;;15.00;54.00;;;;;;6157082;23;20021;-74
2021/04/27 05:46:29;;;;;;;6.53;1.60;;;15.30;53.80;;;;;;6166249;23;20425;-73
2021/04/27 05:48:55;;;;;;;7.30;2.05;;;15.30;53.60;;;;;;6167935;23;20088;-73
2021/04/27 05:51:21;;;;;;;8.48;1.52;;;15.40;53.10;;;;;;6166205;23;20021;-73
2021/04/27 05:53:46;;;;;;;5.97;1.58;;;15.50;53.60;;;;;;6166818;23;20017;-74
2021/04/27 05:56:12;;;;;;;3.83;1.35;;;15.60;53.50;;;;;;6168018;23;20276;-73
2021/04/27 05:58:38;;;;;;;2.88;1.25;;;15.70;53.40;;;;;;6167507;23;20276;-73
2021/04/27 06:01:04;;;;;;;5.05;1.25;;;15.80;53.40;;;;;;6131880;23;20025;-73
2021/04/27 06:03:30;;;;;;;6.03;1.40;;;16.00;53.40;;;;;;6157859;23;20087;-73
2021/04/27 06:05:56;;;;;;;4.78;1.45;;;16.10;53.20;;;;;;6139268;23;21244;-73
2021/04/27 06:08:22;;;;;;;4.55;1.70;;;16.10;53.10;;;;;;6167003;23;20048;-73
2021/04/27 06:10:49;;;;;;;2.88;1.20;;;16.20;53.20;;;;;;6156857;23;20010;-73
2021/04/27 06:13:15;;;;;;;4.93;1.00;;;16.30;53.10;;;;;;6166760;23;20018;-73
2021/04/27 06:15:40;;;;;;;6.40;1.33;;;16.40;52.90;;;;;;6166037;23;20036;-73
2021/04/27 06:18:06;;;;;;;7.97;1.38;;;16.50;52.80;;;;;;6166934;23;20013;-73
2021/04/27 06:20:32;;;;;;;7.72;1.70;;;16.60;52.70;;;;;;6167907;23;20017;-73
2021/04/27 06:22:58;;;;;;;5.55;1.48;;;16.60;52.70;;;;;;6166945;23;20014;-72
2021/04/27 06:25:24;;;;;;;9.48;1.77;;;16.70;53.50;;;;;;6157410;23;20022;-76
2021/04/27 06:27:50;;;;;;;10.00;1.48;;;16.70;52.30;;;;;;6167593;23;20013;-74
2021/04/27 06:30:17;;;;;;;13.38;2.20;;;16.70;52.40;;;;;;6166983;23;20414;-74
2021/04/27 06:32:43;;;;;;;13.98;1.85;;;16.70;52.10;;;;;;6157253;23;20107;-72
2021/04/27 06:35:09;;;;;;;7.78;2.00;;;16.80;51.30;;;;;;6167003;23;20440;-73
2021/04/27 06:37:35;;;;;;;8.68;1.98;;;16.40;49.70;;;;;;6157394;23;20100;-72
2021/04/27 06:40:02;;;;;;;11.15;2.50;;;15.90;50.20;;;;;;6167603;23;20083;-74
2021/04/27 06:42:27;;;;;;;13.98;2.08;;;15.80;50.40;;;;;;6167313;23;20084;-72
2021/04/27 06:44:53;;;;;;;16.70;2.15;;;15.70;52.20;;;;;;6167743;23;20017;-72
2021/04/27 06:47:19;;;;;;;9.00;1.88;;;16.00;53.10;;;;;;6168667;23;20013;-72
2021/04/27 06:49:45;;;;;;;11.20;1.73;;;16.30;53.00;;;;;;6159344;23;20013;-73
2021/04/27 06:52:11;;;;;;;19.77;2.83;;;16.40;52.80;;;;;;6169545;23;20013;-75
2021/04/27 06:54:38;;;;;;;15.48;2.20;;;16.60;52.40;;;;;;6169304;23;20368;-74
2021/04/27 06:57:04;;;;;;;17.45;2.83;;;16.70;52.30;;;;;;6169145;23;20017;-74
2021/04/27 06:59:31;;;;;;;14.05;2.67;;;16.80;51.20;;;;;;6168845;23;20024;-77
2021/04/27 07:01:59;;;;;;;18.02;2.25;;;16.90;51.90;;;;;;6169219;23;20021;-76
2021/04/27 07:04:25;;;;;;;15.48;2.20;;;17.00;52.20;;;;;;6169224;23;20407;-76
2021/04/27 07:06:51;;;;;;;12.52;2.85;;;17.10;52.10;;;;;;6158357;23;20045;-75
2021/04/27 07:09:17;;;;;;;12.32;2.40;;;17.10;51.50;;;;;;6169230;23;20354;-74
2021/04/27 07:11:44;;;;;;;8.82;1.92;;;17.20;50.80;;;;;;6169156;23;20017;-75
2021/04/27 07:14:10;;;;;;;10.93;2.20;;;17.10;50.50;;;;;;6159445;23;20017;-75
2021/04/27 07:16:36;;;;;;;9.95;1.60;;;17.10;50.60;;;;;;6169557;23;20040;-75
2021/04/27 07:19:02;;;;;;;12.30;1.88;;;17.10;50.60;;;;;;6168724;23;20071;-74
2021/04/27 07:21:27;;;;;;;17.63;2.25;;;17.00;50.60;;;;;;6159397;23;20014;-75
2021/04/27 07:23:53;;;;;;;7.53;1.98;;;17.00;50.70;;;;;;6170075;23;20010;-75
2021/04/27 07:26:19;;;;;;;12.77;2.10;;;17.00;50.70;;;;;;6159418;23;20013;-74
2021/04/27 07:28:45;;;;;;;10.40;1.90;;;16.90;50.80;;;;;;6169252;23;20010;-75
2021/04/27 07:31:11;;;;;;;5.75;1.27;;;16.80;50.70;;;;;;6160177;23;20076;-73
2021/04/27 07:33:36;;;;;;;5.63;1.48;;;16.80;50.70;;;;;;6169988;23;20401;-75
2021/04/27 07:36:03;;;;;;;6.90;1.27;;;16.70;50.80;;;;;;6169373;23;20021;-75
2021/04/27 07:38:28;;;;;;;6.70;1.58;;;16.70;50.80;;;;;;6159015;23;20025;-74
2021/04/27 07:40:54;;;;;;;7.32;1.30;;;16.60;50.90;;;;;;6168959;23;20021;-74
2021/04/27 07:43:21;;;;;;;5.43;1.13;;;16.50;51.00;;;;;;6168917;23;20013;-76
2021/04/27 07:45:47;;;;;;;8.82;1.45;;;16.50;51.30;;;;;;6169244;23;20017;-74
2021/04/27 07:48:13;;;;;;;6.78;1.13;;;16.40;51.70;;;;;;6169649;23;20080;-76
2021/04/27 07:50:39;;;;;;;6.25;1.58;;;16.30;52.10;;;;;;6169583;23;20077;-75
2021/04/27 07:53:05;;;;;;;7.50;1.20;;;16.20;52.40;;;;;;6168805;23;20017;-75
2021/04/27 07:55:32;;;;;;;4.28;1.20;;;16.20;52.70;;;;;;6169003;23;20013;-74
2021/04/27 07:57:58;;;;;;;6.15;1.45;;;16.10;52.90;;;;;;6168653;23;20033;-74
2021/04/27 08:00:24;;;;;;;2.78;0.93;;;16.00;53.20;;;;;;6134299;23;20303;-75
2021/04/27 08:02:51;;;;;;;6.78;0.95;;;16.00;53.50;;;;;;6169054;23;20068;-75
2021/04/27 08:05:19;;;;;;;6.57;1.50;;;16.00;53.70;;;;;;6168999;23;20092;-75
2021/04/27 08:07:45;;;;;;;2.78;0.95;;;16.00;53.80;;;;;;6133129;23;20013;-74
2021/04/27 08:10:13;;;;;;;3.78;1.23;;;15.90;53.90;;;;;;6159252;23;20010;-74
2021/04/27 08:12:47;;;;;;;2.80;1.02;;;15.90;54.00;;;;;;6168417;23;20056;-75
2021/04/27 08:15:16;;;;;;;4.85;0.98;;;15.90;54.10;;;;;;6159241;23;20118;-75
2021/04/27 08:17:42;;;;;;;4.22;1.10;;;15.90;54.20;;;;;;6169580;23;20021;-75
2021/04/27 08:20:10;;;;;;;4.55;1.08;;;15.80;54.30;;;;;;6168752;23;20025;-75
2021/04/27 08:22:36;;;;;;;2.85;1.60;;;15.80;54.40;;;;;;6169122;23;20017;-75
2021/04/27 08:25:04;;;;;;;5.45;1.25;;;15.80;54.50;;;;;;6168564;23;20346;-74
2021/04/27 08:27:30;;;;;;;3.15;0.65;;;15.80;55.30;;;;;;6169109;23;20016;-75
2021/04/27 08:29:56;;;;;;;2.78;0.88;;;15.80;54.80;;;;;;6169414;23;20018;-75
2021/04/27 08:32:22;;;;;;;3.55;0.90;;;15.80;54.90;;;;;;6158765;23;20033;-75
2021/04/27 08:34:48;;;;;;;2.92;0.93;;;15.80;54.90;;;;;;6169488;23;20013;-74
2021/04/27 08:37:14;;;;;;;2.83;0.90;;;15.70;54.80;;;;;;6168752;23;20028;-75
2021/04/27 08:39:39;;;;;;;2.63;1.00;;;15.70;54.90;;;;;;6159149;23;20021;-74
2021/04/27 08:42:06;;;;;;;2.60;0.77;;;15.70;54.90;;;;;;6168938;23;20037;-75
2021/04/27 08:44:32;;;;;;;2.17;0.70;;;15.70;54.80;;;;;;6158513;23;20021;-75
2021/04/27 08:46:58;;;;;;;2.75;1.05;;;15.70;54.80;;;;;;6168946;23;20399;-74
2021/04/27 08:49:24;;;;;;;2.28;0.90;;;15.70;54.70;;;;;;6168603;23;20096;-75
2021/04/27 08:51:51;;;;;;;2.88;0.70;;;15.70;54.70;;;;;;6168765;23;20013;-74
2021/04/27 08:54:18;;;;;;;4.32;0.95;;;15.70;54.60;;;;;;6168549;23;20023;-75
2021/04/27 08:56:45;;;;;;;1.77;0.90;;;15.60;54.60;;;;;;6168399;23;20028;-74
2021/04/27 08:59:12;;;;;;;1.63;0.80;;;15.70;54.30;;;;;;6168640;23;20013;-76
2021/04/27 09:01:38;;;;;;;2.08;0.95;;;15.60;54.20;;;;;;6158625;23;20342;-75
2021/04/27 09:04:04;;;;;;;2.13;0.75;;;15.60;54.30;;;;;;6168658;23;20017;-74
2021/04/27 09:06:30;;;;;;;1.95;1.08;;;15.60;54.10;;;;;;6167963;23;20014;-75
2021/04/27 09:08:56;;;;;;;1.83;0.68;;;15.60;53.90;;;;;;6167724;23;20020;-75
2021/04/27 09:11:27;;;;;;;2.50;0.63;;;15.60;53.80;;;;;;6168335;23;20040;-75
2021/04/27 09:14:08;;;;;;;1.63;0.90;;;15.60;53.90;;;;;;6168215;23;20017;-74
2021/04/27 09:16:34;;;;;;;1.73;0.75;;;15.60;53.80;;;;;;6158309;23;20092;-75
2021/04/27 09:19:00;;;;;;;4.00;1.00;;;15.60;53.80;;;;;;6168231;23;20080;-75
2021/04/27 09:21:39;;;;;;;2.50;0.70;;;15.60;53.70;;;;;;6168878;23;20016;-75
2021/04/27 09:24:16;;;;;;;2.92;0.88;;;15.60;53.90;;;;;;6168232;23;20422;-75
2021/04/27 09:26:51;;;;;;;1.92;0.60;;;15.60;53.90;;;;;;6168211;23;20391;-75
2021/04/27 09:29:28;;;;;;;2.15;0.82;;;15.60;53.70;;;;;;6167849;23;20017;-74
2021/04/27 09:31:54;;;;;;;2.67;0.73;;;15.60;53.90;;;;;;6167820;23;20386;-74
2021/04/27 09:34:32;;;;;;;1.52;0.80;;;15.60;53.70;;;;;;6168207;23;20088;-75
2021/04/27 09:37:00;;;;;;;1.92;0.63;;;15.60;53.90;;;;;;6167835;23;20302;-76
2021/04/27 09:39:50;;;;;;;2.35;0.88;;;15.60;53.80;;;;;;6167791;23;20018;-76
2021/04/27 09:42:19;;;;;;;1.58;0.73;;;15.60;53.90;;;;;;6158455;23;20272;-75
2021/04/27 09:44:53;;;;;;;2.05;0.98;;;15.60;53.70;;;;;;6168000;23;20017;-74
2021/04/27 09:47:19;;;;;;;1.73;0.60;;;15.60;53.70;;;;;;6167868;23;20013;-75
2021/04/27 09:50:11;;;;;;;2.33;0.57;;;15.50;53.60;;;;;;6167709;23;20070;-76
2021/04/27 09:52:45;;;;;;;1.08;0.70;;;15.60;54.00;;;;;;6153598;23;20013;-75
2021/04/27 09:55:16;;;;;;;;;;;15.60;53.60;;;;;;6169159;23;20009;-75
2021/04/27 09:57:51;;;;;;;1.60;0.57;;;15.50;54.00;;;;;;6168508;23;19912;-75
2021/04/27 10:00:29;;;;;;;1.27;0.60;;;15.50;53.80;;;;;;6168318;23;20014;-76
2021/04/27 10:02:57;;;;;;;1.15;0.50;;;15.50;53.90;;;;;;6167948;23;20013;-74
2021/04/27 10:05:24;;;;;;;2.10;0.60;;;15.50;53.80;;;;;;6168569;23;20020;-74
2021/04/27 10:07:51;;;;;;;2.08;0.77;;;15.50;53.80;;;;;;6161693;23;20426;-75
2021/04/27 10:10:18;;;;;;;1.75;0.60;;;15.50;53.70;;;;;;6133318;23;20024;-76
2021/04/27 10:12:46;;;;;;;1.17;0.63;;;15.60;53.80;;;;;;6142193;23;20025;-76
2021/04/27 10:15:14;;;;;;;0.65;0.40;;;15.50;53.70;;;;;;6168611;23;20033;-75
2021/04/27 10:17:41;;;;;;;1.38;0.60;;;15.50;53.60;;;;;;6167927;23;20407;-74
2021/04/27 10:20:12;;;;;;;1.27;0.50;;;15.50;53.70;;;;;;6157612;23;20470;-75
2021/04/27 10:22:41;;;;;;;1.63;0.60;;;15.50;54.30;;;;;;6168383;23;20075;-75
2021/04/27 10:25:11;;;;;;;1.40;0.75;;;15.50;53.70;;;;;;6169055;23;20067;-76
2021/04/27 10:27:37;;;;;;;1.75;0.85;;;15.50;53.70;;;;;;6168430;23;20027;-75
2021/04/27 10:30:18;;;;;;;1.58;0.73;;;15.50;53.70;;;;;;6167947;23;20009;-75
2021/04/27 10:33:02;;;;;;;0.80;0.50;;;15.50;53.80;;;;;;6167550;23;20021;-76
2021/04/27 10:35:29;;;;;;;1.40;0.70;;;15.50;53.70;;;;;;6167834;23;20014;-75
2021/04/27 10:38:04;;;;;;;2.65;0.63;;;15.50;53.70;;;;;;6167932;23;20387;-75
2021/04/27 10:41:01;;;;;;;2.20;0.70;;;15.50;53.70;;;;;;6158158;23;20020;-75
2021/04/27 10:43:27;;;;;;;1.92;0.68;;;15.50;53.70;;;;;;6155706;23;20009;-76
2021/04/27 10:45:55;;;;;;;1.05;0.43;;;15.50;53.80;;;;;;6167207;23;20299;-75
2021/04/27 10:48:41;;;;;;;1.27;0.55;;;15.40;53.70;;;;;;6167323;23;20324;-76
2021/04/27 10:51:25;;;;;;;1.10;0.70;;;15.50;53.80;;;;;;6157425;23;20013;-75
2021/04/27 10:54:04;;;;;;;1.35;0.60;;;15.50;53.80;;;;;;6167779;23;20080;-75
2021/04/27 10:56:34;;;;;;;1.38;0.73;;;15.40;53.70;;;;;;6158217;23;20021;-75
2021/04/27 10:59:08;;;;;;;1.60;0.63;;;15.40;53.70;;;;;;6167672;23;20064;-76
2021/04/27 11:01:35;;;;;;;2.80;0.55;;;15.40;53.70;;;;;;6168114;23;20040;-75
2021/04/27 11:04:01;;;;;;;0.65;0.40;;;15.40;53.70;;;;;;6157681;23;20407;-75
2021/04/27 11:06:27;;;;;;;0.70;0.50;;;15.40;53.60;;;;;;6167081;23;20014;-75
2021/04/27 11:08:59;;;;;;;1.13;0.50;;;15.40;53.70;;;;;;6167563;23;20018;-74
2021/04/27 11:11:30;;;;;;;0.73;0.50;;;15.40;53.80;;;;;;6167759;23;20072;-74
2021/04/27 11:14:20;;;;;;;1.23;0.60;;;15.40;53.80;;;;;;6167788;23;20462;-75
2021/04/27 11:16:53;;;;;;;0.82;0.50;;;15.40;53.80;;;;;;6167782;23;20037;-75
2021/04/27 11:19:19;;;;;;;0.77;0.47;;;15.40;54.50;;;;;;6168349;23;20033;-74
2021/04/27 11:22:16;;;;;;;0.95;0.47;;;15.40;53.80;;;;;;6167822;23;20299;-75
2021/04/27 11:24:42;;;;;;;0.85;0.45;;;15.40;53.80;;;;;;6134010;23;20088;-75
2021/04/27 11:27:25;;;;;;;1.02;0.32;;;15.40;53.90;;;;;;6167134;23;20403;-75
2021/04/27 11:29:53;;;;;;;0.88;0.57;;;15.40;53.90;;;;;;6157663;23;20021;-75
2021/04/27 11:32:19;;;;;;;2.08;0.47;;;15.40;53.90;;;;;;6169018;23;20029;-76
2021/04/27 11:35:11;;;;;;;1.63;0.60;;;15.30;53.80;;;;;;6169195;23;20020;-75
2021/04/27 11:37:52;;;;;;;1.27;0.73;;;15.30;53.90;;;;;;6169330;23;20013;-76
2021/04/27 11:40:32;;;;;;;1.10;0.40;;;15.40;53.90;;;;;;6169590;23;20025;-75
2021/04/27 11:43:04;;;;;;;1.48;0.52;;;15.40;54.00;;;;;;6168920;23;20016;-75
2021/04/27 11:45:42;;;;;;;1.35;0.43;;;15.40;54.00;;;;;;6169799;23;20013;-74
2021/04/27 11:48:15;;;;;;;1.60;0.68;;;15.30;54.00;;;;;;6168706;23;20319;-75
2021/04/27 11:50:41;;;;;;;;;;;15.30;54.00;;;;;;6160537;23;20378;-75
2021/04/27 11:53:08;;;;;;;2.28;0.50;;;15.30;54.00;;;;;;6168826;23;20183;-76
2021/04/27 11:55:40;;;;;;;0.45;0.32;;;15.30;54.00;;;;;;6169150;23;20017;-75
2021/04/27 11:58:08;;;;;;;0.70;0.30;;;15.30;54.00;;;;;;6168617;23;20056;-74
2021/04/27 12:00:37;;;;;;;1.58;0.70;;;15.40;54.10;;;;;;6169597;23;20017;-75
2021/04/27 12:03:19;;;;;;;1.90;0.68;;;15.40;54.10;;;;;;6168748;23;20010;-75
2021/04/27 12:05:47;;;;;;;0.70;0.40;;;15.40;54.10;;;;;;6169387;23;20013;-74
2021/04/27 12:08:34;;;;;;;0.80;0.30;;;15.30;54.10;;;;;;6161711;23;20010;-75
2021/04/27 12:11:22;;;;;;;1.65;0.47;;;15.30;54.10;;;;;;6169047;23;20014;-74
2021/04/27 12:13:52;;;;;;;0.93;0.40;;;15.30;54.20;;;;;;6169282;23;20028;-75
2021/04/27 12:16:32;;;;;;;0.50;0.30;;;15.30;54.20;;;;;;6169717;23;20094;-75
2021/04/27 12:19:10;;;;;;;0.90;0.40;;;15.30;54.20;;;;;;6168826;23;20009;-74
2021/04/27 12:21:44;;;;;;;0.52;0.32;;;15.30;54.20;;;;;;6168782;23;20017;-75
2021/04/27 12:24:19;;;;;;;;;;;15.30;54.30;;;;;;6169306;23;20076;-75
2021/04/27 12:27:00;;;;;;;1.10;0.38;;;15.30;54.30;;;;;;6169460;23;19913;-75
2021/04/27 12:29:35;;;;;;;0.52;0.30;;;15.30;54.30;;;;;;6169047;23;20280;-74
2021/04/27 12:32:17;;;;;;;1.23;0.22;;;15.30;54.40;;;;;;6142809;23;20009;-75
2021/04/27 12:35:09;;;;;;;1.50;0.60;;;15.30;54.40;;;;;;6168614;23;20010;-74
2021/04/27 12:37:43;;;;;;;0.75;0.40;;;15.30;54.30;;;;;;6168347;23;20284;-75
2021/04/27 12:40:15;;;;;;;1.10;0.40;;;15.20;54.40;;;;;;6168710;23;20038;-76
2021/04/27 12:43:08;;;;;;;1.20;0.50;;;15.20;54.40;;;;;;6168632;23;20024;-75
2021/04/27 12:45:52;;;;;;;1.15;0.50;;;15.30;54.40;;;;;;6168741;23;20096;-74
2021/04/27 12:48:19;;;;;;;1.48;0.40;;;15.30;54.40;;;;;;6168837;23;20025;-74
2021/04/27 12:50:47;;;;;;;1.05;0.30;;;15.30;54.40;;;;;;6168941;23;20024;-76
2021/04/27 12:53:13;;;;;;;0.80;0.38;;;15.30;54.40;;;;;;6168252;23;20409;-76
2021/04/27 12:55:56;;;;;;;0.88;0.35;;;15.20;54.40;;;;;;6168822;23;20020;-76